sensor_id;sensor_type;location;lat;lon;timestamp;temperature;humidity
702;DHT22;334;48.808;9.222;2022-12-11T00:00:04;3.90;1.00
702;DHT22;334;48.808;9.222;2022-12-11T00:01:15;3.90;1.00
702;DHT22;334;48.808;9.222;2022-12-11T00:02:17;3.90;1.00
702;DHT22;334;48.808;9.222;2022-12-11T00:03:19;3.90;1.00
702;DHT22;334;48.808;9.222;2022-12-11T00:04:21;3.90;1.00
702;DHT22;334;48.808;9.222;2022-12-11T00:05:23;3.90;1.00
702;DHT22;334;48.808;9.222;2022-12-11T00:06:25;3.90;1.00
702;DHT22;334;48.808;9.222;2022-12-11T00:07:26;3.90;1.00
702;DHT22;334;48.808;9.222;2022-12-11T00:08:28;3.80;1.00
702;DHT22;334;48.808;9.222;2022-12-11T00:09:30;3.80;1.00
702;DHT22;334;48.808;9.222;2022-12-11T00:10:33;3.90;1.00
702;DHT22;334;48.808;9.222;2022-12-11T00:11:38;3.90;1.00
702;DHT22;334;48.808;9.222;2022-12-11T00:12:40;3.90;1.00
702;DHT22;334;48.808;9.222;2022-12-11T00:13:43;3.90;1.00
702;DHT22;334;48.808;9.222;2022-12-11T00:14:45;3.90;1.00
702;DHT22;334;48.808;9.222;2022-12-11T00:15:46;3.90;1.00
702;DHT22;334;48.808;9.222;2022-12-11T00:16:48;3.90;1.00
702;DHT22;334;48.808;9.222;2022-12-11T00:17:50;3.90;1.00
702;DHT22;334;48.808;9.222;2022-12-11T00:18:52;3.90;1.00
702;DHT22;334;48.808;9.222;2022-12-11T00:19:54;3.80;1.00
702;DHT22;334;48.808;9.222;2022-12-11T00:20:59;3.90;1.00
702;DHT22;334;48.808;9.222;2022-12-11T00:22:02;3.90;1.00
702;DHT22;334;48.808;9.222;2022-12-11T00:23:04;3.90;1.00
702;DHT22;334;48.808;9.222;2022-12-11T00:24:06;3.90;1.00
702;DHT22;334;48.808;9.222;2022-12-11T00:25:08;3.90;1.00
702;DHT22;334;48.808;9.222;2022-12-11T00:26:14;3.90;1.00
702;DHT22;334;48.808;9.222;2022-12-11T00:27:16;3.90;1.00
702;DHT22;334;48.808;9.222;2022-12-11T00:28:18;3.90;1.00
702;DHT22;334;48.808;9.222;2022-12-11T00:29:21;4.00;1.00
702;DHT22;334;48.808;9.222;2022-12-11T00:30:25;3.90;1.00
702;DHT22;334;48.808;9.222;2022-12-11T00:31:26;3.90;1.00
702;DHT22;334;48.808;9.222;2022-12-11T00:32:28;3.90;1.00
702;DHT22;334;48.808;9.222;2022-12-11T00:33:37;3.90;1.00
702;DHT22;334;48.808;9.222;2022-12-11T00:34:39;3.90;1.00
702;DHT22;334;48.808;9.222;2022-12-11T00:35:45;3.90;1.00
702;DHT22;334;48.808;9.222;2022-12-11T00:36:47;3.90;1.00
702;DHT22;334;48.808;9.222;2022-12-11T00:37:56;3.90;1.00
702;DHT22;334;48.808;9.222;2022-12-11T00:38:58;3.90;1.00
702;DHT22;334;48.808;9.222;2022-12-11T00:40:00;3.90;1.00
702;DHT22;334;48.808;9.222;2022-12-11T00:41:01;4.00;1.00
702;DHT22;334;48.808;9.222;2022-12-11T00:42:03;4.00;1.00
702;DHT22;334;48.808;9.222;2022-12-11T00:43:05;4.00;1.00
702;DHT22;334;48.808;9.222;2022-12-11T00:44:07;4.00;1.00
702;DHT22;334;48.808;9.222;2022-12-11T00:45:09;3.90;1.00
702;DHT22;334;48.808;9.222;2022-12-11T00:46:12;3.90;1.00
702;DHT22;334;48.808;9.222;2022-12-11T00:47:14;3.90;1.00
702;DHT22;334;48.808;9.222;2022-12-11T00:48:15;3.90;1.00
702;DHT22;334;48.808;9.222;2022-12-11T00:49:17;3.90;1.00
702;DHT22;334;48.808;9.222;2022-12-11T00:50:19;3.90;1.00
702;DHT22;334;48.808;9.222;2022-12-11T00:51:21;3.90;1.00
702;DHT22;334;48.808;9.222;2022-12-11T00:52:23;3.90;1.00
702;DHT22;334;48.808;9.222;2022-12-11T00:53:25;3.90;1.00
702;DHT22;334;48.808;9.222;2022-12-11T00:54:27;3.80;1.00
702;DHT22;334;48.808;9.222;2022-12-11T00:55:29;3.80;1.00
702;DHT22;334;48.808;9.222;2022-12-11T00:56:31;3.50;1.00
702;DHT22;334;48.808;9.222;2022-12-11T00:57:33;3.80;1.00
702;DHT22;334;48.808;9.222;2022-12-11T00:58:35;3.80;1.00
702;DHT22;334;48.808;9.222;2022-12-11T00:59:37;3.80;1.00
702;DHT22;334;48.808;9.222;2022-12-11T01:00:40;3.90;1.00
702;DHT22;334;48.808;9.222;2022-12-11T01:01:42;3.90;1.00
702;DHT22;334;48.808;9.222;2022-12-11T01:02:45;3.90;1.00
702;DHT22;334;48.808;9.222;2022-12-11T01:03:47;3.90;1.00
702;DHT22;334;48.808;9.222;2022-12-11T01:04:49;4.00;1.00
702;DHT22;334;48.808;9.222;2022-12-11T01:05:53;4.00;1.00
702;DHT22;334;48.808;9.222;2022-12-11T01:06:55;4.00;1.00
702;DHT22;334;48.808;9.222;2022-12-11T01:07:57;4.00;1.00
702;DHT22;334;48.808;9.222;2022-12-11T01:08:58;4.00;1.00
702;DHT22;334;48.808;9.222;2022-12-11T01:10:19;4.00;1.00
702;DHT22;334;48.808;9.222;2022-12-11T01:11:27;4.00;1.00
702;DHT22;334;48.808;9.222;2022-12-11T01:12:28;4.00;1.00
702;DHT22;334;48.808;9.222;2022-12-11T01:13:30;4.00;1.00
702;DHT22;334;48.808;9.222;2022-12-11T01:14:32;4.00;1.00
702;DHT22;334;48.808;9.222;2022-12-11T01:15:42;4.00;1.00
702;DHT22;334;48.808;9.222;2022-12-11T01:16:44;4.10;1.00
702;DHT22;334;48.808;9.222;2022-12-11T01:17:45;4.00;1.00
702;DHT22;334;48.808;9.222;2022-12-11T01:18:47;4.00;1.00
702;DHT22;334;48.808;9.222;2022-12-11T01:19:49;4.00;1.00
702;DHT22;334;48.808;9.222;2022-12-11T01:20:50;4.00;1.00
702;DHT22;334;48.808;9.222;2022-12-11T01:21:53;4.00;1.00
702;DHT22;334;48.808;9.222;2022-12-11T01:22:56;4.00;1.00
702;DHT22;334;48.808;9.222;2022-12-11T01:23:58;4.00;1.00
702;DHT22;334;48.808;9.222;2022-12-11T01:25:00;4.10;1.00
702;DHT22;334;48.808;9.222;2022-12-11T01:26:21;4.10;1.00
702;DHT22;334;48.808;9.222;2022-12-11T01:27:24;4.10;1.00
702;DHT22;334;48.808;9.222;2022-12-11T01:28:27;4.10;1.00
702;DHT22;334;48.808;9.222;2022-12-11T01:29:31;4.10;1.00
702;DHT22;334;48.808;9.222;2022-12-11T01:30:33;4.10;1.00
702;DHT22;334;48.808;9.222;2022-12-11T01:31:35;4.10;1.00
702;DHT22;334;48.808;9.222;2022-12-11T01:32:38;4.10;1.00
702;DHT22;334;48.808;9.222;2022-12-11T01:33:40;4.10;1.00
702;DHT22;334;48.808;9.222;2022-12-11T01:34:42;4.10;1.00
702;DHT22;334;48.808;9.222;2022-12-11T01:35:44;4.10;1.00
702;DHT22;334;48.808;9.222;2022-12-11T01:36:46;4.10;1.00
702;DHT22;334;48.808;9.222;2022-12-11T01:37:48;4.00;1.00
702;DHT22;334;48.808;9.222;2022-12-11T01:38:50;4.00;1.00
702;DHT22;334;48.808;9.222;2022-12-11T01:39:51;4.00;1.00
702;DHT22;334;48.808;9.222;2022-12-11T01:40:53;4.00;1.00
702;DHT22;334;48.808;9.222;2022-12-11T01:41:59;3.70;1.00
702;DHT22;334;48.808;9.222;2022-12-11T01:43:01;4.00;1.00
702;DHT22;334;48.808;9.222;2022-12-11T01:44:07;4.00;1.00
702;DHT22;334;48.808;9.222;2022-12-11T01:45:35;4.00;1.00
702;DHT22;334;48.808;9.222;2022-12-11T01:46:39;4.00;1.00
702;DHT22;334;48.808;9.222;2022-12-11T01:47:42;3.90;1.00
702;DHT22;334;48.808;9.222;2022-12-11T01:48:44;3.90;1.00
702;DHT22;334;48.808;9.222;2022-12-11T01:49:46;3.90;1.00
702;DHT22;334;48.808;9.222;2022-12-11T01:51:14;3.50;1.00
702;DHT22;334;48.808;9.222;2022-12-11T01:52:20;3.80;1.00
702;DHT22;334;48.808;9.222;2022-12-11T01:53:29;3.80;1.00
702;DHT22;334;48.808;9.222;2022-12-11T01:54:32;3.80;1.00
702;DHT22;334;48.808;9.222;2022-12-11T01:55:37;3.80;1.00
702;DHT22;334;48.808;9.222;2022-12-11T01:56:41;3.80;1.00
702;DHT22;334;48.808;9.222;2022-12-11T01:57:46;3.80;1.00
702;DHT22;334;48.808;9.222;2022-12-11T01:58:53;3.80;1.00
702;DHT22;334;48.808;9.222;2022-12-11T01:59:55;3.90;1.00
702;DHT22;334;48.808;9.222;2022-12-11T02:00:57;3.90;1.00
702;DHT22;334;48.808;9.222;2022-12-11T02:02:17;3.80;1.00
702;DHT22;334;48.808;9.222;2022-12-11T02:03:20;3.80;1.00
702;DHT22;334;48.808;9.222;2022-12-11T02:04:22;3.50;1.00
702;DHT22;334;48.808;9.222;2022-12-11T02:05:25;3.70;1.00
702;DHT22;334;48.808;9.222;2022-12-11T02:08:08;3.80;1.00
702;DHT22;334;48.808;9.222;2022-12-11T02:09:09;3.80;1.00
702;DHT22;334;48.808;9.222;2022-12-11T02:10:12;3.80;1.00
702;DHT22;334;48.808;9.222;2022-12-11T02:11:19;3.80;1.00
702;DHT22;334;48.808;9.222;2022-12-11T02:12:34;3.90;1.00
702;DHT22;334;48.808;9.222;2022-12-11T02:13:59;3.90;1.00
702;DHT22;334;48.808;9.222;2022-12-11T02:15:17;3.90;1.00
702;DHT22;334;48.808;9.222;2022-12-11T02:16:30;3.80;1.00
702;DHT22;334;48.808;9.222;2022-12-11T02:19:02;3.80;1.00
702;DHT22;334;48.808;9.222;2022-12-11T02:20:22;3.80;1.00
702;DHT22;334;48.808;9.222;2022-12-11T02:21:33;3.70;1.00
702;DHT22;334;48.808;9.222;2022-12-11T02:25:21;3.70;1.00
702;DHT22;334;48.808;9.222;2022-12-11T02:28:17;3.60;1.00
702;DHT22;334;48.808;9.222;2022-12-11T02:29:48;3.50;1.00
702;DHT22;334;48.808;9.222;2022-12-11T02:30:50;3.50;1.00
702;DHT22;334;48.808;9.222;2022-12-11T02:32:04;3.50;1.00
702;DHT22;334;48.808;9.222;2022-12-11T02:33:10;3.50;1.00
702;DHT22;334;48.808;9.222;2022-12-11T02:34:36;3.50;1.00
702;DHT22;334;48.808;9.222;2022-12-11T02:35:43;3.60;1.00
702;DHT22;334;48.808;9.222;2022-12-11T02:36:51;3.60;1.00
702;DHT22;334;48.808;9.222;2022-12-11T02:38:04;3.30;1.00
702;DHT22;334;48.808;9.222;2022-12-11T02:39:10;3.60;1.00
702;DHT22;334;48.808;9.222;2022-12-11T02:40:17;3.60;1.00
702;DHT22;334;48.808;9.222;2022-12-11T02:41:21;3.60;1.00
702;DHT22;334;48.808;9.222;2022-12-11T02:42:27;3.20;1.00
702;DHT22;334;48.808;9.222;2022-12-11T02:43:31;3.60;1.00
702;DHT22;334;48.808;9.222;2022-12-11T02:44:35;3.70;1.00
702;DHT22;334;48.808;9.222;2022-12-11T02:45:39;3.70;1.00
702;DHT22;334;48.808;9.222;2022-12-11T02:46:43;3.70;1.00
702;DHT22;334;48.808;9.222;2022-12-11T02:47:47;3.70;1.00
702;DHT22;334;48.808;9.222;2022-12-11T02:48:50;3.70;1.00
702;DHT22;334;48.808;9.222;2022-12-11T02:49:54;3.70;1.00
702;DHT22;334;48.808;9.222;2022-12-11T02:51:00;3.70;1.00
702;DHT22;334;48.808;9.222;2022-12-11T02:52:04;3.80;1.00
702;DHT22;334;48.808;9.222;2022-12-11T02:53:07;3.80;1.00
702;DHT22;334;48.808;9.222;2022-12-11T02:54:16;3.80;1.00
702;DHT22;334;48.808;9.222;2022-12-11T02:55:22;3.80;1.00
702;DHT22;334;48.808;9.222;2022-12-11T02:56:35;3.90;1.00
702;DHT22;334;48.808;9.222;2022-12-11T02:57:46;3.60;1.00
702;DHT22;334;48.808;9.222;2022-12-11T02:58:53;4.00;1.00
702;DHT22;334;48.808;9.222;2022-12-11T02:59:59;4.00;1.00
702;DHT22;334;48.808;9.222;2022-12-11T03:01:02;4.00;1.00
702;DHT22;334;48.808;9.222;2022-12-11T03:02:05;4.00;1.00
702;DHT22;334;48.808;9.222;2022-12-11T03:03:07;4.00;1.00
702;DHT22;334;48.808;9.222;2022-12-11T03:04:09;4.10;1.00
702;DHT22;334;48.808;9.222;2022-12-11T03:05:12;4.10;1.00
702;DHT22;334;48.808;9.222;2022-12-11T03:06:17;4.10;1.00
702;DHT22;334;48.808;9.222;2022-12-11T03:07:23;4.10;1.00
702;DHT22;334;48.808;9.222;2022-12-11T03:08:26;4.20;1.00
702;DHT22;334;48.808;9.222;2022-12-11T03:09:28;4.20;1.00
702;DHT22;334;48.808;9.222;2022-12-11T03:10:30;4.20;1.00
702;DHT22;334;48.808;9.222;2022-12-11T03:11:32;4.10;1.00
702;DHT22;334;48.808;9.222;2022-12-11T03:12:38;4.10;1.00
702;DHT22;334;48.808;9.222;2022-12-11T03:13:41;4.10;1.00
702;DHT22;334;48.808;9.222;2022-12-11T03:14:43;4.00;1.00
702;DHT22;334;48.808;9.222;2022-12-11T03:17:11;4.00;1.00
702;DHT22;334;48.808;9.222;2022-12-11T03:18:20;4.00;1.00
702;DHT22;334;48.808;9.222;2022-12-11T03:19:32;3.90;1.00
702;DHT22;334;48.808;9.222;2022-12-11T03:21:45;3.90;1.00
702;DHT22;334;48.808;9.222;2022-12-11T03:22:57;3.80;1.00
702;DHT22;334;48.808;9.222;2022-12-11T03:24:11;3.80;1.00
702;DHT22;334;48.808;9.222;2022-12-11T03:25:21;3.90;1.00
702;DHT22;334;48.808;9.222;2022-12-11T03:26:23;3.90;1.00
702;DHT22;334;48.808;9.222;2022-12-11T03:28:00;3.90;1.00
702;DHT22;334;48.808;9.222;2022-12-11T03:29:12;3.80;1.00
702;DHT22;334;48.808;9.222;2022-12-11T03:30:19;3.80;1.00
702;DHT22;334;48.808;9.222;2022-12-11T03:31:29;3.80;1.00
702;DHT22;334;48.808;9.222;2022-12-11T03:32:47;3.80;1.00
702;DHT22;334;48.808;9.222;2022-12-11T03:33:53;3.90;1.00
702;DHT22;334;48.808;9.222;2022-12-11T03:35:08;3.90;1.00
702;DHT22;334;48.808;9.222;2022-12-11T03:36:20;3.90;1.00
702;DHT22;334;48.808;9.222;2022-12-11T03:37:24;3.90;1.00
702;DHT22;334;48.808;9.222;2022-12-11T03:38:36;3.80;1.00
702;DHT22;334;48.808;9.222;2022-12-11T03:39:46;3.80;1.00
702;DHT22;334;48.808;9.222;2022-12-11T03:40:51;3.80;1.00
702;DHT22;334;48.808;9.222;2022-12-11T03:41:54;3.80;1.00
702;DHT22;334;48.808;9.222;2022-12-11T03:42:57;3.90;1.00
702;DHT22;334;48.808;9.222;2022-12-11T03:44:00;3.90;1.00
702;DHT22;334;48.808;9.222;2022-12-11T03:45:04;3.90;1.00
702;DHT22;334;48.808;9.222;2022-12-11T03:46:08;3.90;1.00
702;DHT22;334;48.808;9.222;2022-12-11T03:47:12;3.80;1.00
702;DHT22;334;48.808;9.222;2022-12-11T03:48:16;3.80;1.00
702;DHT22;334;48.808;9.222;2022-12-11T03:49:22;3.80;1.00
702;DHT22;334;48.808;9.222;2022-12-11T03:50:28;3.80;1.00
702;DHT22;334;48.808;9.222;2022-12-11T03:51:31;3.80;1.00
702;DHT22;334;48.808;9.222;2022-12-11T03:52:35;3.80;1.00
702;DHT22;334;48.808;9.222;2022-12-11T03:53:46;3.80;1.00
702;DHT22;334;48.808;9.222;2022-12-11T03:54:49;3.90;1.00
702;DHT22;334;48.808;9.222;2022-12-11T03:55:52;3.90;1.00
702;DHT22;334;48.808;9.222;2022-12-11T03:56:56;3.80;1.00
702;DHT22;334;48.808;9.222;2022-12-11T03:57:59;3.40;1.00
702;DHT22;334;48.808;9.222;2022-12-11T03:59:00;3.80;1.00
702;DHT22;334;48.808;9.222;2022-12-11T04:00:07;3.80;1.00
702;DHT22;334;48.808;9.222;2022-12-11T04:01:09;3.70;1.00
702;DHT22;334;48.808;9.222;2022-12-11T04:02:11;3.60;1.00
702;DHT22;334;48.808;9.222;2022-12-11T04:03:13;3.60;1.00
702;DHT22;334;48.808;9.222;2022-12-11T04:04:16;3.60;1.00
702;DHT22;334;48.808;9.222;2022-12-11T04:05:19;3.60;1.00
702;DHT22;334;48.808;9.222;2022-12-11T04:06:22;3.50;1.00
702;DHT22;334;48.808;9.222;2022-12-11T04:07:23;3.50;1.00
702;DHT22;334;48.808;9.222;2022-12-11T04:08:26;3.30;1.00
702;DHT22;334;48.808;9.222;2022-12-11T04:09:28;3.40;1.00
702;DHT22;334;48.808;9.222;2022-12-11T04:10:30;3.40;1.00
702;DHT22;334;48.808;9.222;2022-12-11T04:11:31;3.40;1.00
702;DHT22;334;48.808;9.222;2022-12-11T04:12:36;3.40;1.00
702;DHT22;334;48.808;9.222;2022-12-11T04:13:39;3.40;1.00
702;DHT22;334;48.808;9.222;2022-12-11T04:14:41;3.40;1.00
702;DHT22;334;48.808;9.222;2022-12-11T04:16:02;3.40;1.00
702;DHT22;334;48.808;9.222;2022-12-11T04:17:04;3.10;1.00
702;DHT22;334;48.808;9.222;2022-12-11T04:18:06;3.40;1.00
702;DHT22;334;48.808;9.222;2022-12-11T04:19:27;3.30;1.00
702;DHT22;334;48.808;9.222;2022-12-11T04:20:47;3.30;1.00
702;DHT22;334;48.808;9.222;2022-12-11T04:22:11;3.30;1.00
702;DHT22;334;48.808;9.222;2022-12-11T04:23:34;3.30;1.00
702;DHT22;334;48.808;9.222;2022-12-11T04:24:55;3.20;1.00
702;DHT22;334;48.808;9.222;2022-12-11T04:26:08;3.20;1.00
702;DHT22;334;48.808;9.222;2022-12-11T04:27:10;3.20;1.00
702;DHT22;334;48.808;9.222;2022-12-11T04:28:12;3.20;1.00
702;DHT22;334;48.808;9.222;2022-12-11T04:29:14;3.20;1.00
702;DHT22;334;48.808;9.222;2022-12-11T04:30:21;3.20;1.00
702;DHT22;334;48.808;9.222;2022-12-11T04:31:23;3.30;1.00
702;DHT22;334;48.808;9.222;2022-12-11T04:32:25;3.20;1.00
702;DHT22;334;48.808;9.222;2022-12-11T04:33:27;3.30;1.00
702;DHT22;334;48.808;9.222;2022-12-11T04:34:29;3.30;1.00
702;DHT22;334;48.808;9.222;2022-12-11T04:35:31;3.00;1.00
702;DHT22;334;48.808;9.222;2022-12-11T04:36:32;3.20;1.00
702;DHT22;334;48.808;9.222;2022-12-11T04:37:35;3.30;1.00
702;DHT22;334;48.808;9.222;2022-12-11T04:38:37;2.90;1.00
702;DHT22;334;48.808;9.222;2022-12-11T04:39:38;3.20;1.00
702;DHT22;334;48.808;9.222;2022-12-11T04:40:40;3.20;1.00
702;DHT22;334;48.808;9.222;2022-12-11T04:41:43;3.20;1.00
702;DHT22;334;48.808;9.222;2022-12-11T04:42:45;3.20;1.00
702;DHT22;334;48.808;9.222;2022-12-11T04:43:47;3.10;1.00
702;DHT22;334;48.808;9.222;2022-12-11T04:44:49;3.10;1.00
702;DHT22;334;48.808;9.222;2022-12-11T04:46:03;3.20;1.00
702;DHT22;334;48.808;9.222;2022-12-11T04:47:05;3.10;1.00
702;DHT22;334;48.808;9.222;2022-12-11T04:48:07;3.20;1.00
702;DHT22;334;48.808;9.222;2022-12-11T04:49:09;3.10;1.00
702;DHT22;334;48.808;9.222;2022-12-11T04:50:12;3.20;1.00
702;DHT22;334;48.808;9.222;2022-12-11T04:51:14;3.10;1.00
702;DHT22;334;48.808;9.222;2022-12-11T04:52:17;3.10;1.00
702;DHT22;334;48.808;9.222;2022-12-11T04:53:19;3.10;1.00
702;DHT22;334;48.808;9.222;2022-12-11T04:54:21;3.10;1.00
702;DHT22;334;48.808;9.222;2022-12-11T04:55:23;3.10;1.00
702;DHT22;334;48.808;9.222;2022-12-11T04:56:24;3.10;1.00
702;DHT22;334;48.808;9.222;2022-12-11T04:57:26;3.10;1.00
702;DHT22;334;48.808;9.222;2022-12-11T04:58:28;2.70;1.00
702;DHT22;334;48.808;9.222;2022-12-11T04:59:31;2.90;1.00
702;DHT22;334;48.808;9.222;2022-12-11T05:00:33;2.60;1.00
702;DHT22;334;48.808;9.222;2022-12-11T05:01:35;3.00;1.00
702;DHT22;334;48.808;9.222;2022-12-11T05:02:38;3.00;1.00
702;DHT22;334;48.808;9.222;2022-12-11T05:03:40;3.00;1.00
702;DHT22;334;48.808;9.222;2022-12-11T05:04:42;3.00;1.00
702;DHT22;334;48.808;9.222;2022-12-11T05:05:48;3.20;1.00
702;DHT22;334;48.808;9.222;2022-12-11T05:06:51;3.00;1.00
702;DHT22;334;48.808;9.222;2022-12-11T05:07:53;2.70;1.00
702;DHT22;334;48.808;9.222;2022-12-11T05:08:54;3.00;1.00
702;DHT22;334;48.808;9.222;2022-12-11T05:09:57;3.00;1.00
702;DHT22;334;48.808;9.222;2022-12-11T05:11:00;3.00;1.00
702;DHT22;334;48.808;9.222;2022-12-11T05:12:03;3.00;1.00
702;DHT22;334;48.808;9.222;2022-12-11T05:13:04;3.00;1.00
702;DHT22;334;48.808;9.222;2022-12-11T05:14:06;3.00;1.00
702;DHT22;334;48.808;9.222;2022-12-11T05:15:08;3.00;1.00
702;DHT22;334;48.808;9.222;2022-12-11T05:16:13;3.00;1.00
702;DHT22;334;48.808;9.222;2022-12-11T05:17:15;3.10;1.00
702;DHT22;334;48.808;9.222;2022-12-11T05:18:17;2.80;1.00
702;DHT22;334;48.808;9.222;2022-12-11T05:19:19;3.20;1.00
702;DHT22;334;48.808;9.222;2022-12-11T05:20:21;3.00;1.00
702;DHT22;334;48.808;9.222;2022-12-11T05:21:23;3.30;1.00
702;DHT22;334;48.808;9.222;2022-12-11T05:22:24;3.30;1.00
702;DHT22;334;48.808;9.222;2022-12-11T05:23:28;3.40;1.00
702;DHT22;334;48.808;9.222;2022-12-11T05:24:30;3.50;1.00
702;DHT22;334;48.808;9.222;2022-12-11T05:25:32;2.90;1.00
702;DHT22;334;48.808;9.222;2022-12-11T05:26:34;3.30;1.00
702;DHT22;334;48.808;9.222;2022-12-11T05:27:35;3.20;1.00
702;DHT22;334;48.808;9.222;2022-12-11T05:28:38;3.20;1.00
702;DHT22;334;48.808;9.222;2022-12-11T05:29:41;3.20;1.00
702;DHT22;334;48.808;9.222;2022-12-11T05:30:43;3.30;1.00
702;DHT22;334;48.808;9.222;2022-12-11T05:31:45;3.30;1.00
702;DHT22;334;48.808;9.222;2022-12-11T05:32:47;3.30;1.00
702;DHT22;334;48.808;9.222;2022-12-11T05:33:49;3.30;1.00
702;DHT22;334;48.808;9.222;2022-12-11T05:34:52;3.50;1.00
702;DHT22;334;48.808;9.222;2022-12-11T05:35:54;3.60;1.00
702;DHT22;334;48.808;9.222;2022-12-11T05:36:56;3.40;1.00
702;DHT22;334;48.808;9.222;2022-12-11T05:37:58;3.40;1.00
702;DHT22;334;48.808;9.222;2022-12-11T05:39:03;3.40;1.00
702;DHT22;334;48.808;9.222;2022-12-11T05:40:06;3.40;1.00
702;DHT22;334;48.808;9.222;2022-12-11T05:41:07;3.40;1.00
702;DHT22;334;48.808;9.222;2022-12-11T05:42:09;3.70;1.00
702;DHT22;334;48.808;9.222;2022-12-11T05:43:11;3.50;1.00
702;DHT22;334;48.808;9.222;2022-12-11T05:44:13;3.50;1.00
702;DHT22;334;48.808;9.222;2022-12-11T05:45:15;3.50;1.00
702;DHT22;334;48.808;9.222;2022-12-11T05:46:22;3.50;1.00
702;DHT22;334;48.808;9.222;2022-12-11T05:47:24;3.50;1.00
702;DHT22;334;48.808;9.222;2022-12-11T05:48:26;3.50;1.00
702;DHT22;334;48.808;9.222;2022-12-11T05:49:28;3.50;1.00
702;DHT22;334;48.808;9.222;2022-12-11T05:50:31;3.40;1.00
702;DHT22;334;48.808;9.222;2022-12-11T05:51:33;3.60;1.00
702;DHT22;334;48.808;9.222;2022-12-11T05:52:35;3.60;1.00
702;DHT22;334;48.808;9.222;2022-12-11T05:53:39;3.60;1.00
702;DHT22;334;48.808;9.222;2022-12-11T05:54:42;3.60;1.00
702;DHT22;334;48.808;9.222;2022-12-11T05:55:44;3.60;1.00
702;DHT22;334;48.808;9.222;2022-12-11T05:56:48;3.60;1.00
702;DHT22;334;48.808;9.222;2022-12-11T05:57:51;3.60;1.00
702;DHT22;334;48.808;9.222;2022-12-11T05:58:55;3.60;1.00
702;DHT22;334;48.808;9.222;2022-12-11T05:59:56;3.60;1.00
702;DHT22;334;48.808;9.222;2022-12-11T06:00:59;3.60;1.00
702;DHT22;334;48.808;9.222;2022-12-11T06:02:00;3.60;1.00
702;DHT22;334;48.808;9.222;2022-12-11T06:03:02;3.60;1.00
702;DHT22;334;48.808;9.222;2022-12-11T06:04:06;3.60;1.00
702;DHT22;334;48.808;9.222;2022-12-11T06:05:08;3.60;1.00
702;DHT22;334;48.808;9.222;2022-12-11T06:06:11;3.60;1.00
702;DHT22;334;48.808;9.222;2022-12-11T06:07:13;3.60;1.00
702;DHT22;334;48.808;9.222;2022-12-11T06:08:16;3.70;1.00
702;DHT22;334;48.808;9.222;2022-12-11T06:09:18;3.60;1.00
702;DHT22;334;48.808;9.222;2022-12-11T06:10:20;3.60;1.00
702;DHT22;334;48.808;9.222;2022-12-11T06:11:23;3.60;1.00
702;DHT22;334;48.808;9.222;2022-12-11T06:12:25;3.20;1.00
702;DHT22;334;48.808;9.222;2022-12-11T06:13:28;3.60;1.00
702;DHT22;334;48.808;9.222;2022-12-11T06:14:30;3.50;1.00
702;DHT22;334;48.808;9.222;2022-12-11T06:15:33;3.50;1.00
702;DHT22;334;48.808;9.222;2022-12-11T06:16:35;3.50;1.00
702;DHT22;334;48.808;9.222;2022-12-11T06:17:37;3.50;1.00
702;DHT22;334;48.808;9.222;2022-12-11T06:18:42;3.50;1.00
702;DHT22;334;48.808;9.222;2022-12-11T06:19:44;3.50;1.00
702;DHT22;334;48.808;9.222;2022-12-11T06:20:48;3.50;1.00
702;DHT22;334;48.808;9.222;2022-12-11T06:21:50;3.50;1.00
702;DHT22;334;48.808;9.222;2022-12-11T06:22:51;3.20;1.00
702;DHT22;334;48.808;9.222;2022-12-11T06:23:55;3.50;1.00
702;DHT22;334;48.808;9.222;2022-12-11T06:24:57;3.50;1.00
702;DHT22;334;48.808;9.222;2022-12-11T06:25:58;3.50;1.00
702;DHT22;334;48.808;9.222;2022-12-11T06:27:00;3.20;1.00
702;DHT22;334;48.808;9.222;2022-12-11T06:28:03;3.50;1.00
702;DHT22;334;48.808;9.222;2022-12-11T06:29:06;3.40;1.00
702;DHT22;334;48.808;9.222;2022-12-11T06:30:13;3.40;1.00
702;DHT22;334;48.808;9.222;2022-12-11T06:31:15;3.30;1.00
702;DHT22;334;48.808;9.222;2022-12-11T06:32:17;3.30;1.00
702;DHT22;334;48.808;9.222;2022-12-11T06:33:20;3.20;1.00
702;DHT22;334;48.808;9.222;2022-12-11T06:34:21;3.20;1.00
702;DHT22;334;48.808;9.222;2022-12-11T06:35:24;3.10;1.00
702;DHT22;334;48.808;9.222;2022-12-11T06:36:26;3.10;1.00
702;DHT22;334;48.808;9.222;2022-12-11T06:37:28;3.20;1.00
702;DHT22;334;48.808;9.222;2022-12-11T06:38:29;3.20;1.00
702;DHT22;334;48.808;9.222;2022-12-11T06:39:31;3.00;1.00
702;DHT22;334;48.808;9.222;2022-12-11T06:40:33;3.20;1.00
702;DHT22;334;48.808;9.222;2022-12-11T06:41:36;3.20;1.00
702;DHT22;334;48.808;9.222;2022-12-11T06:42:39;3.20;1.00
702;DHT22;334;48.808;9.222;2022-12-11T06:43:41;3.20;1.00
702;DHT22;334;48.808;9.222;2022-12-11T06:44:45;3.20;1.00
702;DHT22;334;48.808;9.222;2022-12-11T06:45:47;3.20;1.00
702;DHT22;334;48.808;9.222;2022-12-11T06:47:04;3.00;1.00
702;DHT22;334;48.808;9.222;2022-12-11T06:48:05;3.20;1.00
702;DHT22;334;48.808;9.222;2022-12-11T06:49:10;3.20;1.00
702;DHT22;334;48.808;9.222;2022-12-11T06:50:12;3.20;1.00
702;DHT22;334;48.808;9.222;2022-12-11T06:51:18;3.10;1.00
702;DHT22;334;48.808;9.222;2022-12-11T06:52:21;2.90;1.00
702;DHT22;334;48.808;9.222;2022-12-11T06:53:23;3.10;1.00
702;DHT22;334;48.808;9.222;2022-12-11T06:54:25;2.70;1.00
702;DHT22;334;48.808;9.222;2022-12-11T06:55:28;3.10;1.00
702;DHT22;334;48.808;9.222;2022-12-11T06:56:30;3.10;1.00
702;DHT22;334;48.808;9.222;2022-12-11T06:57:32;3.20;1.00
702;DHT22;334;48.808;9.222;2022-12-11T06:58:35;3.10;1.00
702;DHT22;334;48.808;9.222;2022-12-11T06:59:37;3.20;1.00
702;DHT22;334;48.808;9.222;2022-12-11T07:00:39;3.20;1.00
702;DHT22;334;48.808;9.222;2022-12-11T07:01:40;3.20;1.00
702;DHT22;334;48.808;9.222;2022-12-11T07:02:42;3.10;1.00
702;DHT22;334;48.808;9.222;2022-12-11T07:03:44;3.20;1.00
702;DHT22;334;48.808;9.222;2022-12-11T07:04:48;3.10;1.00
702;DHT22;334;48.808;9.222;2022-12-11T07:06:02;3.20;1.00
702;DHT22;334;48.808;9.222;2022-12-11T07:07:04;3.20;1.00
702;DHT22;334;48.808;9.222;2022-12-11T07:08:05;3.20;1.00
702;DHT22;334;48.808;9.222;2022-12-11T07:09:08;3.10;1.00
702;DHT22;334;48.808;9.222;2022-12-11T07:10:10;3.20;1.00
702;DHT22;334;48.808;9.222;2022-12-11T07:11:14;2.90;1.00
702;DHT22;334;48.808;9.222;2022-12-11T07:12:16;3.30;1.00
702;DHT22;334;48.808;9.222;2022-12-11T07:13:18;3.00;1.00
702;DHT22;334;48.808;9.222;2022-12-11T07:14:20;3.10;1.00
702;DHT22;334;48.808;9.222;2022-12-11T07:15:25;3.30;1.00
702;DHT22;334;48.808;9.222;2022-12-11T07:16:26;3.00;1.00
702;DHT22;334;48.808;9.222;2022-12-11T07:17:29;3.40;1.00
702;DHT22;334;48.808;9.222;2022-12-11T07:18:31;3.40;1.00
702;DHT22;334;48.808;9.222;2022-12-11T07:19:33;3.40;1.00
702;DHT22;334;48.808;9.222;2022-12-11T07:20:35;3.40;1.00
702;DHT22;334;48.808;9.222;2022-12-11T07:21:37;3.40;1.00
702;DHT22;334;48.808;9.222;2022-12-11T07:22:38;3.40;1.00
702;DHT22;334;48.808;9.222;2022-12-11T07:23:48;3.40;1.00
702;DHT22;334;48.808;9.222;2022-12-11T07:24:49;3.50;1.00
702;DHT22;334;48.808;9.222;2022-12-11T07:25:51;3.40;1.00
702;DHT22;334;48.808;9.222;2022-12-11T07:26:54;3.40;1.00
702;DHT22;334;48.808;9.222;2022-12-11T07:27:55;3.10;1.00
702;DHT22;334;48.808;9.222;2022-12-11T07:28:58;3.40;1.00
702;DHT22;334;48.808;9.222;2022-12-11T07:30:03;3.40;1.00
702;DHT22;334;48.808;9.222;2022-12-11T07:31:06;3.30;1.00
702;DHT22;334;48.808;9.222;2022-12-11T07:32:09;3.30;1.00
702;DHT22;334;48.808;9.222;2022-12-11T07:33:11;3.30;1.00
702;DHT22;334;48.808;9.222;2022-12-11T07:34:13;2.90;1.00
702;DHT22;334;48.808;9.222;2022-12-11T07:35:15;3.30;1.00
702;DHT22;334;48.808;9.222;2022-12-11T07:36:17;3.30;1.00
702;DHT22;334;48.808;9.222;2022-12-11T07:37:22;3.30;1.00
702;DHT22;334;48.808;9.222;2022-12-11T07:38:24;3.20;1.00